createdAt,value
2019-05-15T00:04:03.798Z,99454.58
2019-05-15T00:09:10.435Z,99452.41
2019-05-15T00:14:18.260Z,99449.17
2019-05-15T00:19:24.912Z,99445.56
2019-05-15T00:24:31.450Z,99437.69
2019-05-15T00:29:38.342Z,99433.62
2019-05-15T00:34:45.214Z,99431.19
2019-05-15T00:39:51.777Z,99422.22
2019-05-15T00:44:58.532Z,99421.84
2019-05-15T00:50:05.876Z,99412.55
2019-05-15T00:55:13.313Z,99416.16
2019-05-15T01:00:41.833Z,99404.72
2019-05-15T01:05:48.362Z,99399.70
2019-05-15T01:10:54.981Z,99398.77
2019-05-15T01:16:02.631Z,99401.92
2019-05-15T01:21:09.257Z,99392.59
2019-05-15T01:26:15.874Z,99388.77
2019-05-15T01:31:22.474Z,99395.80
2019-05-15T01:36:29.128Z,99390.42
2019-05-15T01:41:35.627Z,99387.83
2019-05-15T01:46:42.160Z,99382.61
2019-05-15T01:51:48.757Z,99377.39
2019-05-15T01:56:55.292Z,99373.90
2019-05-15T02:02:01.825Z,99377.02
2019-05-15T02:07:08.429Z,99366.89
2019-05-15T02:12:14.971Z,99361.89
2019-05-15T02:17:21.421Z,99356.27
2019-05-15T02:22:28.365Z,99348.16
2019-05-15T02:27:35.082Z,99355.56
2019-05-15T02:32:41.619Z,99345.73
2019-05-15T02:37:49.055Z,99346.00
2019-05-15T02:42:58.959Z,99342.17
2019-05-15T02:48:04.120Z,99340.96
2019-05-15T02:53:10.673Z,99341.35
2019-05-15T02:58:21.413Z,99335.88
2019-05-15T03:03:25.631Z,99338.91
2019-05-15T03:08:33.305Z,99341.66
2019-05-15T03:13:39.921Z,99341.78
2019-05-15T03:18:49.820Z,99335.36
2019-05-15T03:23:54.814Z,99336.16
2019-05-15T03:29:01.401Z,99339.44
2019-05-15T03:34:20.032Z,99336.23
2019-05-15T03:39:19.048Z,99343.28
2019-05-15T03:44:24.783Z,99333.38
2019-05-15T03:49:31.398Z,99333.73
2019-05-15T03:54:39.183Z,99344.86
2019-05-15T03:59:48.918Z,99333.28
2019-05-15T04:04:57.181Z,99339.13
2019-05-15T04:10:02.902Z,99343.28
2019-05-15T04:15:10.851Z,99346.27
2019-05-15T04:20:20.016Z,99345.19
2019-05-15T04:25:29.684Z,99347.81
2019-05-15T04:30:38.942Z,99348.91
2019-05-15T04:35:44.783Z,99348.18
2019-05-15T04:40:51.253Z,99355.58
2019-05-15T04:45:59.124Z,99351.27
2019-05-15T04:51:09.459Z,99356.38
2019-05-15T04:56:14.484Z,99354.32
2019-05-15T05:01:21.095Z,99361.97
2019-05-15T05:06:29.437Z,99359.94
2019-05-15T05:11:38.322Z,99359.25
2019-05-15T05:16:44.638Z,99354.86
2019-05-15T05:21:51.259Z,99356.71
2019-05-15T05:26:58.196Z,99365.97
2019-05-15T05:32:04.875Z,99355.53
2019-05-15T05:37:11.480Z,99359.26
2019-05-15T05:42:18.511Z,99352.63
2019-05-15T05:47:25.214Z,99349.45
2019-05-15T05:52:34.925Z,99342.67
2019-05-15T05:57:43.553Z,99343.41
2019-05-15T06:02:52.327Z,99349.02
2019-05-15T06:07:58.370Z,99344.47
2019-05-15T06:13:04.987Z,99354.95
2019-05-15T06:18:11.741Z,99356.47
2019-05-15T06:23:23.631Z,99359.75
2019-05-15T06:28:28.986Z,99362.27
2019-05-15T06:33:34.872Z,99359.34
2019-05-15T06:38:41.419Z,99361.34
2019-05-15T06:43:48.470Z,99368.05
2019-05-15T06:48:55.067Z,99368.76
2019-05-15T06:54:01.647Z,99357.19
2019-05-15T06:59:08.747Z,99356.04
2019-05-15T07:04:17.997Z,99357.44
2019-05-15T07:09:23.748Z,99353.26
2019-05-15T07:14:30.411Z,99354.91
2019-05-15T07:19:39.224Z,99350.20
2019-05-15T07:24:47.663Z,99344.34
2019-05-15T07:29:53.663Z,99349.02
2019-05-15T07:35:00.260Z,99345.02
2019-05-15T07:40:08.445Z,99351.62
2019-05-15T07:45:19.814Z,99340.45
2019-05-15T07:50:25.314Z,99355.01
2019-05-15T07:55:31.938Z,99358.44
2019-05-15T08:00:39.493Z,99351.88
2019-05-15T08:05:56.041Z,99343.84
2019-05-15T08:10:54.739Z,99343.16
2019-05-15T08:16:02.454Z,99336.22
2019-05-15T08:21:09.219Z,99338.78
2019-05-15T08:26:17.777Z,99339.50
2019-05-15T08:31:24.042Z,99334.70
2019-05-15T08:36:31.382Z,99333.58
2019-05-15T08:41:39.057Z,99328.21
2019-05-15T08:46:47.986Z,99327.77
2019-05-15T08:51:54.089Z,99325.20
2019-05-15T08:57:00.708Z,99318.54
2019-05-15T09:02:07.936Z,99313.93
2019-05-15T09:07:14.787Z,99311.88
2019-05-15T09:12:23.207Z,99307.59
2019-05-15T09:17:29.897Z,99300.08
2019-05-15T09:22:38.269Z,99306.13
2019-05-15T09:27:45.234Z,99305.48
2019-05-15T09:32:51.853Z,99307.45
2019-05-15T09:37:58.469Z,99311.27
2019-05-15T09:43:05.147Z,99314.47
2019-05-15T09:48:14.658Z,99311.44
2019-05-15T09:53:20.082Z,99299.28
2019-05-15T09:58:26.535Z,99300.72
2019-05-15T10:03:33.136Z,99297.98
2019-05-15T10:08:40.051Z,99296.52
2019-05-15T10:13:46.835Z,99292.69
2019-05-15T10:18:53.392Z,99299.17
2019-05-15T10:24:00.028Z,99297.39
2019-05-15T10:29:09.060Z,99292.39
2019-05-15T10:34:14.930Z,99284.81
2019-05-15T10:39:21.630Z,99282.45
2019-05-15T10:44:29.048Z,99276.89
2019-05-15T10:49:35.815Z,99271.19
2019-05-15T10:54:42.423Z,99267.78
2019-05-15T10:59:49.087Z,99267.83
2019-05-15T11:04:57.752Z,99259.13
2019-05-15T11:10:03.918Z,99260.62
2019-05-15T11:15:11.579Z,99260.22
2019-05-15T11:20:19.576Z,99261.17
2019-05-15T11:25:29.981Z,99258.95
2019-05-15T11:30:35.555Z,99264.94
2019-05-15T11:35:57.009Z,99263.23
2019-05-15T11:40:50.594Z,99255.04
2019-05-15T11:45:58.882Z,99252.41
2019-05-15T11:51:05.692Z,99249.50
2019-05-15T11:56:12.401Z,99253.75
2019-05-15T12:01:19.736Z,99255.06
2019-05-15T12:06:28.636Z,99246.64
2019-05-15T12:11:37.349Z,99240.56
2019-05-15T12:17:01.237Z,99241.91
2019-05-15T12:21:51.245Z,99235.95
2019-05-15T12:32:25.172Z,99234.77
2019-05-15T12:37:15.692Z,99226.27
2019-05-15T13:02:55.672Z,99226.61
2019-05-15T13:08:02.281Z,99216.70
2019-05-15T13:13:09.883Z,99209.44
2019-05-15T13:18:18.055Z,99208.30
2019-05-15T13:23:24.780Z,99201.18
2019-05-15T13:28:31.337Z,99191.39
2019-05-15T13:33:38.629Z,99184.28
2019-05-15T13:44:13.710Z,99173.45
2019-05-15T13:49:20.324Z,99173.66
2019-05-15T13:54:28.576Z,99169.00
2019-05-15T13:59:35.053Z,99167.98
2019-05-15T14:04:41.699Z,99159.36
2019-05-15T14:09:48.442Z,99164.02
2019-05-15T14:14:55.060Z,99144.39
2019-05-15T14:20:01.682Z,99150.78
2019-05-15T14:25:09.620Z,99153.92
2019-05-15T14:30:18.160Z,99155.59
2019-05-15T14:35:24.810Z,99155.42
2019-05-15T14:40:31.451Z,99152.12
2019-05-15T14:45:38.890Z,99149.02
2019-05-15T14:50:47.566Z,99139.02
2019-05-15T14:55:53.981Z,99137.69
2019-05-15T15:01:02.954Z,99131.78
2019-05-15T15:06:08.957Z,99127.78
2019-05-15T15:11:17.811Z,99126.84
2019-05-15T15:16:24.060Z,99123.52
2019-05-15T15:21:30.542Z,99121.84
2019-05-15T15:26:39.086Z,99121.20
2019-05-15T15:31:45.245Z,99117.89
2019-05-15T15:36:51.851Z,99115.27
2019-05-15T15:41:58.429Z,99114.41
2019-05-15T15:47:05.038Z,99116.59
2019-05-15T15:52:11.633Z,99110.94
2019-05-15T15:57:19.198Z,99116.09
2019-05-15T16:02:27.963Z,99117.89
2019-05-15T16:07:34.285Z,99118.23
2019-05-15T16:12:40.891Z,99110.25
2019-05-15T16:17:48.774Z,99106.77
2019-05-15T16:22:55.619Z,99110.59
2019-05-15T16:28:02.152Z,99104.11
2019-05-15T16:33:09.898Z,99100.28
2019-05-15T16:38:19.033Z,99096.95
2019-05-15T16:43:25.025Z,99095.28
2019-05-15T16:48:31.634Z,99087.33
2019-05-15T16:53:38.334Z,99090.96
2019-05-15T16:58:45.054Z,99077.05
2019-05-15T17:03:51.677Z,99075.69
2019-05-15T17:08:58.467Z,99068.56
2019-05-15T17:14:05.088Z,99072.05
2019-05-15T17:19:11.749Z,99068.67
2019-05-15T17:24:18.470Z,99074.16
2019-05-15T17:29:25.040Z,99066.36
2019-05-15T17:34:31.579Z,99064.69
2019-05-15T17:39:41.415Z,99067.00
2019-05-15T17:44:48.797Z,99067.19
2019-05-15T17:49:55.342Z,99060.38
2019-05-15T17:55:04.659Z,99055.89
2019-05-15T18:00:13.073Z,99052.06
2019-05-15T18:05:19.916Z,99044.80
2019-05-15T18:10:27.989Z,99040.14
2019-05-15T18:15:34.744Z,99041.45
2019-05-15T18:20:41.290Z,99035.11
2019-05-15T18:25:49.218Z,99028.83
2019-05-15T18:30:58.827Z,99022.50
2019-05-15T18:36:08.612Z,99021.66
2019-05-15T18:41:15.008Z,99023.13
2019-05-15T18:46:21.542Z,99012.87
2019-05-15T18:51:28.198Z,99010.55
2019-05-15T18:56:34.869Z,99005.06
2019-05-15T19:01:41.419Z,99007.20
2019-05-15T19:06:47.895Z,99006.87
2019-05-15T19:11:54.352Z,99005.19
2019-05-15T19:17:00.896Z,99008.51
2019-05-15T19:22:07.880Z,99002.87
2019-05-15T19:27:14.506Z,99012.13
2019-05-15T19:32:21.217Z,99011.30
2019-05-15T19:37:28.778Z,99020.69
2019-05-15T19:42:38.097Z,99006.28
2019-05-15T19:47:44.102Z,99007.59
2019-05-15T19:52:50.645Z,99002.80
2019-05-15T19:57:58.843Z,98998.17
2019-05-15T20:03:08.236Z,98995.66
2019-05-15T20:08:14.252Z,98998.45
2019-05-15T20:13:20.853Z,98990.86
2019-05-15T20:18:27.967Z,98999.44
2019-05-15T20:23:38.093Z,98989.50
2019-05-15T20:28:45.010Z,98988.31
2019-05-15T20:34:02.413Z,98978.22
2019-05-15T20:39:00.055Z,98980.66
2019-05-15T20:44:08.690Z,98986.98
2019-05-15T20:49:14.904Z,98981.77
2019-05-15T20:54:21.693Z,98971.22
2019-05-15T20:59:28.584Z,98965.95
2019-05-15T21:04:35.159Z,98962.96
2019-05-15T21:09:41.767Z,98951.74
2019-05-15T21:14:48.467Z,98946.92
2019-05-15T21:19:58.317Z,98939.01
2019-05-15T21:25:05.277Z,98944.30
2019-05-15T21:30:20.852Z,98938.52
2019-05-15T21:35:27.758Z,98928.09
2019-05-15T21:40:35.752Z,98918.67
2019-05-15T21:45:42.300Z,98908.74
2019-05-15T21:50:48.891Z,98905.45
2019-05-15T21:55:55.490Z,98903.09
2019-05-15T22:01:02.434Z,98903.80
2019-05-15T22:06:10.893Z,98898.99
2019-05-15T22:11:18.706Z,98893.88
2019-05-15T22:16:25.829Z,98896.53
2019-05-15T22:21:32.475Z,98893.36
2019-05-15T22:26:39.010Z,98884.94
2019-05-15T22:31:48.116Z,98878.31
2019-05-15T22:36:54.307Z,98867.91
2019-05-15T22:42:00.941Z,98861.78
2019-05-15T22:47:07.455Z,98851.86
2019-05-15T22:52:14.063Z,98853.87
2019-05-15T22:57:20.832Z,98849.56
2019-05-15T23:02:27.553Z,98838.33
2019-05-15T23:07:34.075Z,98834.67
2019-05-15T23:12:40.682Z,98829.72
2019-05-15T23:17:48.747Z,98819.63
2019-05-15T23:22:58.399Z,98816.64
2019-05-15T23:28:05.456Z,98807.23
2019-05-15T23:33:12.061Z,98803.41
2019-05-15T23:38:18.683Z,98800.45
2019-05-15T23:43:25.297Z,98793.66
2019-05-15T23:48:31.899Z,98782.77
2019-05-15T23:53:38.525Z,98778.61
2019-05-15T23:58:44.899Z,98772.19
